Time;durP1;ratioP1;P1;durP2;ratioP2;P2;SDS_P1;SDS_P2;PMS_P1;PMS_P2;Temp;Humidity;BMP_temperature;BMP_pressure;BME280_temperature;BME280_humidity;BME280_pressure;Samples;Min_cycle;Max_cycle;Signal;HPM_P1;HPM_P2
2023/03/11 00:00:40;;;;;;;0.70;0.70;;;1.40;99.90;;;;;;5043602;28;20293;-79
2023/03/11 00:03:09;;;;;;;1.08;0.98;;;1.40;99.90;;;;;;5035764;28;20191;-78
2023/03/11 00:05:38;;;;;;;1.40;1.30;;;1.40;99.90;;;;;;5035161;28;20824;-78
2023/03/11 00:08:06;;;;;;;0.65;0.65;;;1.40;99.90;;;;;;5035489;28;20574;-78
2023/03/11 00:10:36;;;;;;;0.50;0.50;;;1.40;99.90;;;;;;5034872;28;20254;-78
2023/03/11 00:13:04;;;;;;;0.75;0.75;;;1.40;99.90;;;;;;5035469;28;20202;-79
2023/03/11 00:15:32;;;;;;;0.40;0.40;;;1.40;99.90;;;;;;5054085;28;20191;-79
2023/03/11 00:17:59;;;;;;;0.50;0.45;;;1.40;99.90;;;;;;5054942;28;20190;-79
2023/03/11 00:20:29;;;;;;;0.50;0.50;;;1.40;99.90;;;;;;5053893;28;20211;-75
2023/03/11 00:22:56;;;;;;;1.35;1.25;;;1.40;99.90;;;;;;5049227;28;20716;-78
2023/03/11 00:25:25;;;;;;;0.70;0.70;;;1.40;99.90;;;;;;5055229;28;20199;-78
2023/03/11 00:27:52;;;;;;;0.40;0.40;;;1.40;99.90;;;;;;5054908;28;20212;-77
2023/03/11 00:30:20;;;;;;;0.70;0.68;;;1.40;99.90;;;;;;5054899;28;20222;-78
2023/03/11 00:32:47;;;;;;;0.45;0.40;;;1.40;99.90;;;;;;5055290;28;20191;-79
2023/03/11 00:35:17;;;;;;;0.50;0.50;;;1.40;99.90;;;;;;5054576;28;20203;-78
2023/03/11 00:37:46;;;;;;;0.50;0.50;;;1.40;99.90;;;;;;5054813;28;20230;-78
2023/03/11 00:40:14;;;;;;;0.82;0.82;;;1.40;99.90;;;;;;5055158;28;20221;-78
2023/03/11 00:42:41;;;;;;;0.50;0.50;;;1.40;99.90;;;;;;5046903;28;20205;-78
2023/03/11 00:45:08;;;;;;;1.42;1.00;;;1.40;99.90;;;;;;5054583;28;20562;-78
2023/03/11 00:47:35;;;;;;;0.50;0.40;;;1.40;99.90;;;;;;5054307;28;20201;-78
2023/03/11 00:50:02;;;;;;;0.47;0.40;;;1.30;99.90;;;;;;5039671;28;20724;-79
2023/03/11 00:52:29;;;;;;;0.50;0.40;;;1.40;99.90;;;;;;5034625;28;20211;-74
2023/03/11 00:54:59;;;;;;;2.75;1.60;;;1.40;99.90;;;;;;5033702;28;20201;-79
2023/03/11 00:57:27;;;;;;;1.33;1.23;;;1.40;99.90;;;;;;5033233;28;20655;-78
2023/03/11 00:59:54;;;;;;;0.50;0.40;;;1.40;99.90;;;;;;5033225;28;20242;-79
2023/03/11 01:02:21;;;;;;;0.47;0.40;;;1.40;99.90;;;;;;5042118;28;20195;-78
2023/03/11 01:04:48;;;;;;;2.15;1.52;;;1.40;99.90;;;;;;5053382;28;20190;-77
2023/03/11 01:07:15;;;;;;;0.50;0.50;;;1.40;99.90;;;;;;5052688;28;20201;-78
2023/03/11 01:09:41;;;;;;;0.50;0.40;;;1.40;99.90;;;;;;5052616;28;20202;-78
2023/03/11 01:12:10;;;;;;;0.50;0.40;;;1.40;99.90;;;;;;5053164;28;20736;-78
2023/03/11 01:14:36;;;;;;;0.50;0.50;;;1.40;99.90;;;;;;5052755;28;20195;-78
2023/03/11 01:17:03;;;;;;;0.50;0.40;;;1.40;99.90;;;;;;5052814;28;20655;-78
2023/03/11 01:19:30;;;;;;;0.77;0.77;;;1.40;99.90;;;;;;5052546;28;20570;-78
2023/03/11 01:21:57;;;;;;;18.27;1.35;;;1.40;99.90;;;;;;5052836;28;20207;-77
2023/03/11 01:24:24;;;;;;;0.70;0.70;;;1.40;99.90;;;;;;5052623;28;20201;-78
2023/03/11 01:26:50;;;;;;;0.50;0.40;;;1.40;99.90;;;;;;5052581;28;20281;-76
2023/03/11 01:29:19;;;;;;;0.55;0.52;;;1.40;99.90;;;;;;5052586;28;20209;-77
2023/03/11 01:31:45;;;;;;;0.50;0.40;;;1.40;99.90;;;;;;5052710;28;20250;-79
2023/03/11 01:34:12;;;;;;;0.63;0.63;;;1.30;99.90;;;;;;5053067;28;20281;-78
2023/03/11 01:36:39;;;;;;;0.50;0.40;;;1.30;99.90;;;;;;5053031;28;20226;-75
2023/03/11 01:39:06;;;;;;;0.50;0.45;;;1.30;99.90;;;;;;5052870;28;20634;-79
2023/03/11 01:41:33;;;;;;;0.50;0.50;;;1.20;99.90;;;;;;5052788;28;20206;-78
2023/03/11 01:44:00;;;;;;;6.82;0.80;;;1.20;99.90;;;;;;5052642;28;20194;-79
2023/03/11 01:46:31;;;;;;;1.30;1.30;;;1.10;99.90;;;;;;5053476;28;20191;-78
2023/03/11 01:48:59;;;;;;;0.90;0.90;;;1.10;99.90;;;;;;5053516;28;20282;-78
2023/03/11 01:51:30;;;;;;;0.50;0.40;;;1.10;99.90;;;;;;5051942;28;20222;-79
2023/03/11 01:53:58;;;;;;;0.50;0.50;;;1.20;99.90;;;;;;5047454;28;20205;-78
2023/03/11 01:56:26;;;;;;;0.50;0.40;;;1.20;99.90;;;;;;5036441;28;20286;-77
2023/03/11 01:58:54;;;;;;;0.50;0.40;;;1.10;99.90;;;;;;5053791;28;20190;-77
2023/03/11 02:01:22;;;;;;;0.50;0.40;;;1.20;99.90;;;;;;5053077;28;20264;-78
2023/03/11 02:03:51;;;;;;;0.50;0.40;;;1.20;99.90;;;;;;5053348;28;20195;-79
2023/03/11 02:06:21;;;;;;;0.47;0.40;;;1.10;99.90;;;;;;5053167;28;20194;-78
2023/03/11 02:08:49;;;;;;;0.50;0.40;;;1.10;99.90;;;;;;5029536;28;20197;-79
2023/03/11 02:11:19;;;;;;;0.50;0.50;;;1.10;99.90;;;;;;5053238;28;20226;-77
2023/03/11 02:13:47;;;;;;;0.40;0.40;;;1.10;99.90;;;;;;5028502;28;20636;-80
2023/03/11 02:16:14;;;;;;;1.02;0.93;;;1.10;99.90;;;;;;5053274;28;20197;-78
2023/03/11 02:18:42;;;;;;;0.50;0.40;;;1.00;99.90;;;;;;5033635;28;20199;-77
2023/03/11 02:21:22;;;;;;;0.50;0.40;;;0.90;99.90;;;;;;5047992;28;20217;-77
2023/03/11 02:23:55;;;;;;;0.43;0.40;;;0.90;99.90;;;;;;5025086;28;20195;-77
2023/03/11 02:26:27;;;;;;;0.47;0.40;;;0.80;99.90;;;;;;5033157;28;20207;-77
2023/03/11 02:28:57;;;;;;;0.45;0.40;;;0.80;99.90;;;;;;5045603;28;20197;-78
2023/03/11 02:31:25;;;;;;;1.67;0.85;;;0.80;99.90;;;;;;5052877;28;20223;-78
2023/03/11 02:33:54;;;;;;;0.50;0.40;;;0.80;99.90;;;;;;5049126;28;20193;-78
2023/03/11 02:36:32;;;;;;;0.47;0.40;;;0.70;99.90;;;;;;5032912;28;20291;-78
2023/03/11 02:38:59;;;;;;;8.10;1.50;;;0.60;99.90;;;;;;5032931;28;20197;-79
2023/03/11 02:41:27;;;;;;;0.50;0.40;;;0.70;99.90;;;;;;5041896;28;20252;-78
2023/03/11 02:43:55;;;;;;;0.50;0.40;;;0.60;99.90;;;;;;5048565;28;20634;-77
2023/03/11 02:46:22;;;;;;;0.50;0.43;;;0.60;99.90;;;;;;5032926;28;20278;-77
2023/03/11 02:48:49;;;;;;;2.35;1.58;;;0.60;99.90;;;;;;5032945;28;20270;-78
2023/03/11 02:51:16;;;;;;;5.07;1.45;;;0.50;99.90;;;;;;5033151;28;20225;-79
2023/03/11 02:53:48;;;;;;;0.50;0.40;;;0.50;99.90;;;;;;5033285;28;20199;-79
2023/03/11 02:56:15;;;;;;;0.50;0.40;;;0.40;99.90;;;;;;5033305;28;20200;-78
2023/03/11 02:58:42;;;;;;;0.50;0.50;;;0.50;99.90;;;;;;5051997;28;20198;-77
2023/03/11 03:01:10;;;;;;;0.50;0.40;;;0.40;99.90;;;;;;5053067;28;20210;-79
2023/03/11 03:03:37;;;;;;;3.22;3.00;;;0.40;99.90;;;;;;5052534;28;20197;-79
2023/03/11 03:06:04;;;;;;;0.50;0.40;;;0.50;99.90;;;;;;5038516;28;20192;-78
2023/03/11 03:08:31;;;;;;;0.50;0.40;;;0.40;99.90;;;;;;5032284;28;20286;-79
2023/03/11 03:10:58;;;;;;;0.50;0.40;;;0.40;99.90;;;;;;5037438;28;20692;-79
2023/03/11 03:13:25;;;;;;;0.60;0.60;;;0.50;99.90;;;;;;5038844;28;20206;-78
2023/03/11 03:15:52;;;;;;;0.43;0.40;;;0.50;99.90;;;;;;5056621;28;20190;-79
2023/03/11 03:18:20;;;;;;;0.40;0.40;;;0.50;99.90;;;;;;5041073;28;20282;-78
2023/03/11 03:20:47;;;;;;;0.50;0.40;;;0.60;99.90;;;;;;5048641;28;20640;-78
2023/03/11 03:23:14;;;;;;;0.45;0.40;;;0.60;99.90;;;;;;5057542;28;20620;-78
2023/03/11 03:25:43;;;;;;;0.50;0.40;;;0.60;99.90;;;;;;5038223;28;20230;-78
2023/03/11 03:28:10;;;;;;;0.50;0.40;;;0.60;99.90;;;;;;5036768;28;20663;-78
2023/03/11 03:30:37;;;;;;;0.50;0.50;;;0.60;99.90;;;;;;5037970;28;20223;-78
2023/03/11 03:33:05;;;;;;;0.50;0.40;;;0.60;99.90;;;;;;5050741;28;20721;-77
2023/03/11 03:35:34;;;;;;;1.75;1.23;;;0.60;99.90;;;;;;5036274;28;20196;-79
2023/03/11 03:38:01;;;;;;;0.90;0.88;;;0.60;99.90;;;;;;5049203;28;20210;-77
2023/03/11 03:40:28;;;;;;;0.45;0.40;;;0.60;99.90;;;;;;5039141;28;20215;-76
2023/03/11 03:42:55;;;;;;;0.50;0.40;;;0.60;99.90;;;;;;5036090;28;20554;-78
2023/03/11 03:45:22;;;;;;;0.50;0.40;;;0.50;99.90;;;;;;5051814;28;20282;-78
2023/03/11 03:47:49;;;;;;;0.88;0.88;;;0.50;99.90;;;;;;5052441;28;20227;-78
2023/03/11 03:50:16;;;;;;;0.68;0.68;;;0.50;99.90;;;;;;5036039;28;20323;-78
2023/03/11 03:52:44;;;;;;;0.75;0.75;;;0.50;99.90;;;;;;5054354;28;20697;-78
2023/03/11 03:55:11;;;;;;;0.60;0.60;;;0.50;99.90;;;;;;5055425;28;20686;-78
2023/03/11 03:57:38;;;;;;;0.50;0.40;;;0.50;99.90;;;;;;5053877;28;20221;-76
2023/03/11 04:00:07;;;;;;;0.50;0.40;;;0.50;99.90;;;;;;5035599;28;20294;-77
2023/03/11 04:02:34;;;;;;;0.50;0.40;;;0.40;99.90;;;;;;5035608;28;20191;-77
2023/03/11 04:05:01;;;;;;;0.50;0.40;;;0.40;99.90;;;;;;5035913;28;20619;-78
2023/03/11 04:07:28;;;;;;;0.50;0.50;;;0.50;99.90;;;;;;5034977;28;20229;-77
2023/03/11 04:09:56;;;;;;;0.50;0.40;;;0.50;99.90;;;;;;5035352;28;20218;-78
2023/03/11 04:12:23;;;;;;;0.52;0.52;;;0.50;99.90;;;;;;5051421;28;20301;-78
2023/03/11 04:14:50;;;;;;;0.50;0.40;;;0.50;99.90;;;;;;5055157;28;20285;-78
2023/03/11 04:17:18;;;;;;;0.50;0.40;;;0.50;99.90;;;;;;5055424;28;20289;-78
2023/03/11 04:19:45;;;;;;;0.50;0.40;;;0.50;99.90;;;;;;5044622;28;20633;-78
2023/03/11 04:22:13;;;;;;;0.50;0.40;;;0.50;99.90;;;;;;5041704;28;20191;-78
2023/03/11 04:24:39;;;;;;;0.70;0.70;;;0.50;99.90;;;;;;5044846;28;20195;-77
2023/03/11 04:27:08;;;;;;;0.50;0.40;;;0.50;99.90;;;;;;5034873;28;20197;-78
2023/03/11 04:29:35;;;;;;;0.50;0.50;;;0.50;99.90;;;;;;5043835;28;20206;-78
2023/03/11 04:32:01;;;;;;;0.50;0.40;;;0.50;99.90;;;;;;5055045;28;20210;-78
2023/03/11 04:34:28;;;;;;;0.50;0.40;;;0.50;99.90;;;;;;5055332;28;20229;-78
2023/03/11 04:36:55;;;;;;;0.88;0.88;;;0.50;99.90;;;;;;5055104;28;20539;-78
2023/03/11 04:39:22;;;;;;;0.55;0.55;;;0.40;99.90;;;;;;5047658;28;20627;-78
2023/03/11 04:41:49;;;;;;;0.50;0.40;;;0.40;99.90;;;;;;5034592;28;20290;-77
2023/03/11 04:44:17;;;;;;;0.50;0.40;;;0.40;99.90;;;;;;5034803;28;20286;-78
2023/03/11 04:46:44;;;;;;;0.50;0.40;;;0.40;99.90;;;;;;5034678;28;20195;-78
2023/03/11 04:49:11;;;;;;;0.50;0.40;;;0.30;99.90;;;;;;5040648;28;20632;-78
2023/03/11 04:51:38;;;;;;;0.50;0.40;;;0.40;99.90;;;;;;5054572;28;20221;-78
2023/03/11 04:54:04;;;;;;;0.50;0.40;;;0.40;99.90;;;;;;5050034;28;20222;-77
2023/03/11 04:56:31;;;;;;;0.50;0.40;;;0.40;99.90;;;;;;5034966;28;20199;-78
2023/03/11 04:58:58;;;;;;;0.50;0.40;;;0.30;99.90;;;;;;5054442;28;20284;-77
2023/03/11 05:01:26;;;;;;;0.45;0.40;;;0.30;99.90;;;;;;5054447;28;20761;-79
2023/03/11 05:03:53;;;;;;;0.50;0.40;;;0.30;99.90;;;;;;5055236;28;20274;-77
2023/03/11 05:06:20;;;;;;;0.80;0.80;;;0.30;99.90;;;;;;5056717;28;20214;-78
2023/03/11 05:08:47;;;;;;;0.70;0.70;;;0.30;99.90;;;;;;5056220;28;20191;-78
2023/03/11 05:11:14;;;;;;;0.50;0.50;;;0.40;99.90;;;;;;5050015;28;20758;-76
2023/03/11 05:13:40;;;;;;;0.50;0.40;;;0.40;99.90;;;;;;5035836;28;20241;-77
2023/03/11 05:16:08;;;;;;;0.50;0.40;;;0.40;99.90;;;;;;5036179;28;20278;-78
2023/03/11 05:18:36;;;;;;;0.50;0.40;;;0.40;99.90;;;;;;5035597;28;20282;-77
2023/03/11 05:21:03;;;;;;;0.50;0.40;;;0.40;99.90;;;;;;5047967;28;20589;-78
2023/03/11 05:23:30;;;;;;;0.50;0.40;;;0.40;99.90;;;;;;5055697;28;20194;-77
2023/03/11 05:25:56;;;;;;;0.50;0.40;;;0.40;99.90;;;;;;5055657;28;20649;-77
2023/03/11 05:28:23;;;;;;;0.50;0.40;;;0.40;99.90;;;;;;5048823;28;20278;-77
2023/03/11 05:30:50;;;;;;;0.95;0.95;;;0.30;99.90;;;;;;5036016;28;20242;-78
2023/03/11 05:33:17;;;;;;;0.50;0.40;;;0.40;99.90;;;;;;5042946;28;20215;-78
2023/03/11 05:35:45;;;;;;;0.50;0.40;;;0.30;99.90;;;;;;5038007;28;20191;-80
2023/03/11 05:38:12;;;;;;;0.50;0.40;;;0.30;99.90;;;;;;5032198;28;20659;-80
2023/03/11 05:40:39;;;;;;;0.50;0.40;;;0.20;99.90;;;;;;5035019;28;20223;-77
2023/03/11 05:43:06;;;;;;;0.50;0.40;;;0.30;99.90;;;;;;5054384;28;20277;-78
2023/03/11 05:45:33;;;;;;;0.50;0.40;;;0.30;99.90;;;;;;5055245;28;20229;-77
2023/03/11 05:48:00;;;;;;;0.50;0.40;;;0.30;99.90;;;;;;5037206;28;20191;-78
2023/03/11 05:50:26;;;;;;;0.50;0.40;;;0.30;99.90;;;;;;5036953;28;20222;-77
2023/03/11 05:52:55;;;;;;;0.50;0.50;;;0.30;99.90;;;;;;5046685;28;20218;-79
2023/03/11 05:55:22;;;;;;;0.70;0.68;;;0.20;99.90;;;;;;5057057;28;20204;-79
2023/03/11 05:57:51;;;;;;;0.50;0.50;;;0.20;99.90;;;;;;5050149;28;20260;-80
2023/03/11 06:00:19;;;;;;;0.50;0.50;;;0.20;99.90;;;;;;5057082;28;20250;-78
2023/03/11 06:02:46;;;;;;;0.50;0.40;;;0.20;99.90;;;;;;5041651;28;20192;-80
2023/03/11 06:05:13;;;;;;;0.50;0.40;;;0.20;99.90;;;;;;5039674;28;20199;-80
2023/03/11 06:07:40;;;;;;;0.50;0.40;;;0.20;99.90;;;;;;5047774;28;20201;-79
2023/03/11 06:10:10;;;;;;;0.50;0.40;;;0.20;99.90;;;;;;5059687;28;20278;-80
2023/03/11 06:12:37;;;;;;;0.50;0.40;;;0.10;99.90;;;;;;5050101;28;20311;-79
2023/03/11 06:15:05;;;;;;;0.50;0.40;;;0.10;99.90;;;;;;5042066;28;20195;-79
2023/03/11 06:17:32;;;;;;;0.50;0.40;;;0.10;99.90;;;;;;5043908;28;20230;-79
2023/03/11 06:19:59;;;;;;;0.50;0.40;;;0.20;99.90;;;;;;5050489;28;20213;-79
2023/03/11 06:22:26;;;;;;;0.50;0.40;;;0.20;99.90;;;;;;5051059;28;20197;-79
2023/03/11 06:24:53;;;;;;;2.05;1.95;;;0.30;99.90;;;;;;5057853;28;20217;-80
2023/03/11 06:27:21;;;;;;;0.50;0.40;;;0.30;99.90;;;;;;5052906;28;20191;-80
2023/03/11 06:29:52;;;;;;;0.50;0.40;;;0.40;99.90;;;;;;5055021;28;20318;-79
2023/03/11 06:32:19;;;;;;;0.47;0.40;;;0.50;99.90;;;;;;5044325;28;20201;-80
2023/03/11 06:34:51;;;;;;;0.50;0.40;;;0.60;99.90;;;;;;5059887;28;20265;-79
2023/03/11 06:37:19;;;;;;;0.50;0.50;;;0.50;99.90;;;;;;5060046;28;20198;-79
2023/03/11 06:39:46;;;;;;;0.50;0.40;;;0.60;99.90;;;;;;5049534;28;20195;-78
2023/03/11 06:42:13;;;;;;;0.50;0.40;;;0.70;99.90;;;;;;5056532;28;20194;-80
2023/03/11 06:44:41;;;;;;;0.50;0.40;;;0.80;99.90;;;;;;5057504;28;20617;-79
2023/03/11 06:47:08;;;;;;;0.50;0.40;;;0.80;99.90;;;;;;5052502;28;20203;-78
2023/03/11 06:49:39;;;;;;;0.50;0.40;;;0.80;99.90;;;;;;5034300;28;20291;-79
2023/03/11 06:52:06;;;;;;;0.60;0.60;;;0.90;99.90;;;;;;5035017;28;20195;-79
2023/03/11 06:54:33;;;;;;;0.50;0.40;;;0.90;99.90;;;;;;5033944;28;20326;-80
2023/03/11 06:57:00;;;;;;;0.50;0.40;;;0.90;99.90;;;;;;5034060;28;20382;-79
2023/03/11 06:59:27;;;;;;;0.50;0.40;;;1.00;99.90;;;;;;5038083;28;20287;-78
2023/03/11 07:01:55;;;;;;;0.50;0.40;;;1.00;99.90;;;;;;5037339;28;20829;-78
2023/03/11 07:04:22;;;;;;;0.50;0.40;;;1.00;99.90;;;;;;5038351;28;20213;-80
2023/03/11 07:06:49;;;;;;;0.60;0.60;;;1.10;99.90;;;;;;5036951;28;20199;-81
2023/03/11 07:09:16;;;;;;;0.50;0.40;;;1.10;99.90;;;;;;5037041;28;20290;-80
2023/03/11 07:11:43;;;;;;;0.50;0.40;;;1.30;99.90;;;;;;5053758;28;20242;-80
2023/03/11 07:14:10;;;;;;;0.50;0.40;;;1.40;99.90;;;;;;5054526;28;20563;-80
2023/03/11 07:16:39;;;;;;;4.75;0.73;;;1.60;99.90;;;;;;5055107;28;20285;-79
2023/03/11 07:19:10;;;;;;;1.30;1.30;;;1.80;99.90;;;;;;5055836;28;20194;-79
2023/03/11 07:21:37;;;;;;;0.60;0.57;;;1.90;99.90;;;;;;5055914;28;20210;-78
2023/03/11 07:24:05;;;;;;;0.70;0.70;;;2.00;99.90;;;;;;5055473;28;20274;-81
2023/03/11 07:26:34;;;;;;;0.50;0.40;;;2.10;99.90;;;;;;5054849;28;20207;-81
2023/03/11 07:29:01;;;;;;;1.27;1.17;;;2.20;99.90;;;;;;5054642;28;20207;-79
2023/03/11 07:31:31;;;;;;;0.90;0.90;;;2.40;99.90;;;;;;5055682;28;20218;-79
2023/03/11 07:33:59;;;;;;;0.93;0.93;;;2.70;99.90;;;;;;5055664;28;20574;-80
2023/03/11 07:36:28;;;;;;;0.52;0.52;;;2.90;99.90;;;;;;5049465;28;20658;-79
2023/03/11 07:38:57;;;;;;;0.57;0.57;;;3.10;99.90;;;;;;5041694;28;20191;-80
2023/03/11 07:41:24;;;;;;;0.60;0.50;;;3.10;99.90;;;;;;5044564;28;20269;-79
2023/03/11 07:43:54;;;;;;;0.50;0.50;;;3.10;99.90;;;;;;5035452;28;20261;-80
2023/03/11 07:46:22;;;;;;;0.50;0.40;;;3.40;99.90;;;;;;5048972;28;20194;-81
2023/03/11 07:48:52;;;;;;;0.50;0.40;;;3.80;99.90;;;;;;5049047;28;20195;-80
2023/03/11 07:51:22;;;;;;;0.50;0.45;;;4.20;99.90;;;;;;5049802;28;20220;-81
2023/03/11 07:53:53;;;;;;;0.50;0.40;;;4.70;99.90;;;;;;5055925;28;20218;-80
2023/03/11 07:56:21;;;;;;;1.02;1.02;;;5.60;99.90;;;;;;5054487;28;20191;-79
2023/03/11 07:58:48;;;;;;;0.50;0.40;;;6.10;99.90;;;;;;5056742;28;20195;-80
2023/03/11 08:01:16;;;;;;;0.65;0.60;;;6.70;99.90;;;;;;5059945;28;20218;-80
2023/03/11 08:03:48;;;;;;;0.80;0.80;;;7.70;99.90;;;;;;5058536;28;20570;-80
2023/03/11 08:06:16;;;;;;;0.50;0.40;;;8.30;99.90;;;;;;5059468;28;20213;-79
2023/03/11 08:08:43;;;;;;;0.50;0.40;;;8.60;99.90;;;;;;5058938;28;20258;-78
2023/03/11 08:11:13;;;;;;;0.50;0.40;;;9.20;99.90;;;;;;5058822;28;20219;-80
2023/03/11 08:13:40;;;;;;;0.50;0.40;;;10.10;99.90;;;;;;5058604;28;20215;-80
2023/03/11 08:16:09;;;;;;;0.50;0.40;;;10.60;99.90;;;;;;5031080;28;20223;-80
2023/03/11 08:18:36;;;;;;;1.25;0.70;;;11.30;96.30;;;;;;5039518;28;20199;-80
2023/03/11 08:21:05;;;;;;;0.50;0.40;;;12.20;92.40;;;;;;5038516;28;20239;-78
2023/03/11 08:23:31;;;;;;;0.50;0.40;;;12.50;90.80;;;;;;5037800;28;20239;-79
2023/03/11 08:25:58;;;;;;;4.30;1.03;;;13.60;89.10;;;;;;5037247;28;20470;-79
2023/03/11 08:28:27;;;;;;;0.50;0.40;;;14.60;79.60;;;;;;5036830;28;20513;-79
2023/03/11 08:30:53;;;;;;;0.60;0.50;;;15.60;78.30;;;;;;5038422;28;20538;-79
2023/03/11 08:33:20;;;;;;;0.60;0.50;;;16.20;69.50;;;;;;5052605;28;20847;-79
2023/03/11 08:35:47;;;;;;;0.50;0.50;;;16.30;69.40;;;;;;5058222;28;20440;-81
2023/03/11 08:38:14;;;;;;;0.50;0.40;;;16.50;68.10;;;;;;5057951;28;20521;-79
2023/03/11 08:40:41;;;;;;;0.50;0.40;;;17.20;73.10;;;;;;5058058;28;20461;-78
2023/03/11 08:43:08;;;;;;;0.50;0.50;;;18.40;66.50;;;;;;5057905;28;20444;-81
2023/03/11 08:45:36;;;;;;;0.50;0.40;;;19.30;64.60;;;;;;5057464;28;20445;-79
2023/03/11 08:48:03;;;;;;;0.50;0.30;;;19.70;59.90;;;;;;5057545;28;20495;-79
2023/03/11 08:50:30;;;;;;;0.50;0.40;;;20.10;58.60;;;;;;5058067;28;20469;-81
2023/03/11 08:52:59;;;;;;;1.77;1.63;;;20.00;58.10;;;;;;5056970;28;20441;-79
2023/03/11 08:55:27;;;;;;;0.50;0.30;;;20.40;58.30;;;;;;5057413;28;20432;-77
2023/03/11 08:57:54;;;;;;;0.60;0.60;;;20.90;55.90;;;;;;5056769;28;20444;-79
2023/03/11 09:00:22;;;;;;;0.50;0.40;;;21.50;56.40;;;;;;5032066;28;20473;-78
2023/03/11 09:02:50;;;;;;;0.50;0.40;;;21.70;55.70;;;;;;5033883;28;20438;-78
2023/03/11 09:05:17;;;;;;;0.50;0.30;;;22.10;54.10;;;;;;5038217;28;20442;-80
2023/03/11 09:07:44;;;;;;;0.50;0.40;;;22.90;57.50;;;;;;5038019;28;20529;-79
2023/03/11 09:10:13;;;;;;;0.50;0.40;;;23.30;52.20;;;;;;5037783;28;20881;-80
2023/03/11 09:12:40;;;;;;;0.50;0.40;;;23.30;49.00;;;;;;5036061;28;20433;-78
2023/03/11 09:15:08;;;;;;;0.50;0.30;;;23.50;55.70;;;;;;5037832;28;21048;-79
2023/03/11 09:17:35;;;;;;;0.50;0.40;;;23.60;48.70;;;;;;5038612;28;20484;-79
2023/03/11 09:20:04;;;;;;;0.50;0.30;;;23.30;50.10;;;;;;5037520;28;20460;-79
2023/03/11 09:22:31;;;;;;;0.50;0.40;;;22.60;47.90;;;;;;5038933;28;20454;-79
2023/03/11 09:24:58;;;;;;;0.60;0.50;;;22.60;48.80;;;;;;5037918;28;20524;-79
2023/03/11 09:27:25;;;;;;;0.50;0.40;;;22.00;47.30;;;;;;5036463;28;20441;-78
2023/03/11 09:29:52;;;;;;;0.50;0.40;;;21.50;49.50;;;;;;5039694;28;20996;-80
2023/03/11 09:32:19;;;;;;;0.50;0.40;;;21.60;51.10;;;;;;5041269;28;20438;-80
2023/03/11 09:34:45;;;;;;;0.50;0.40;;;20.70;46.00;;;;;;5058269;28;20589;-80
2023/03/11 09:37:14;;;;;;;0.50;0.30;;;20.20;49.00;;;;;;5062575;28;20443;-79
2023/03/11 09:39:41;;;;;;;0.50;0.30;;;19.30;49.90;;;;;;5063142;28;20442;-80
2023/03/11 09:42:19;;;;;;;0.50;0.47;;;18.10;51.30;;;;;;5063598;28;20443;-81
2023/03/11 09:44:55;;;;;;;0.50;0.40;;;16.80;50.20;;;;;;5044882;28;20434;-79
2023/03/11 09:47:40;;;;;;;0.50;0.30;;;16.30;53.60;;;;;;5032330;28;20441;-81
2023/03/11 09:50:26;;;;;;;0.50;0.30;;;16.80;50.50;;;;;;5037820;28;20472;-79
2023/03/11 09:53:07;;;;;;;0.50;0.40;;;17.50;49.70;;;;;;5037336;28;20438;-81
2023/03/11 09:55:38;;;;;;;0.50;0.30;;;18.00;52.00;;;;;;5036673;28;20441;-80
2023/03/11 09:58:15;;;;;;;0.50;0.40;;;18.20;53.00;;;;;;5037183;28;20513;-79
2023/03/11 10:00:43;;;;;;;0.60;0.50;;;18.60;50.70;;;;;;5037810;28;20454;-79
2023/03/11 10:03:24;;;;;;;0.50;0.40;;;19.40;49.50;;;;;;5038317;28;20521;-80
2023/03/11 10:05:54;;;;;;;0.50;0.50;;;19.40;48.80;;;;;;5055120;28;20425;-79
2023/03/11 10:08:29;;;;;;;0.50;0.30;;;19.70;47.80;;;;;;5051248;28;20457;-80
2023/03/11 10:11:03;;;;;;;0.50;0.40;;;19.50;49.40;;;;;;5057204;28;20456;-79
2023/03/11 10:13:38;;;;;;;0.50;0.30;;;18.90;47.00;;;;;;5038744;28;21008;-79
2023/03/11 10:16:16;;;;;;;0.60;0.30;;;18.00;49.00;;;;;;5040075;28;20461;-79
2023/03/11 10:18:53;;;;;;;0.50;0.40;;;17.60;49.30;;;;;;5042919;28;20525;-79
2023/03/11 10:21:29;;;;;;;0.50;0.50;;;16.50;49.70;;;;;;5043850;28;20520;-81
2023/03/11 10:24:06;;;;;;;0.50;0.40;;;15.00;52.00;;;;;;5060152;28;20905;-80
2023/03/11 10:26:36;;;;;;;0.50;0.40;;;14.00;54.00;;;;;;5052127;28;20437;-80
2023/03/11 10:29:14;;;;;;;0.50;0.40;;;14.60;55.70;;;;;;5038186;28;20457;-79
2023/03/11 10:31:47;;;;;;;0.50;0.40;;;16.00;57.50;;;;;;5045966;28;20544;-79
2023/03/11 10:34:20;;;;;;;0.50;0.30;;;17.30;55.70;;;;;;5050883;28;20995;-79
2023/03/11 10:36:56;;;;;;;0.60;0.40;;;18.40;51.70;;;;;;5058860;28;20984;-79
2023/03/11 10:39:25;;;;;;;0.50;0.30;;;17.40;47.70;;;;;;5053987;28;20951;-79
2023/03/11 10:41:55;;;;;;;0.50;0.30;;;17.10;50.10;;;;;;5047571;28;20453;-80
2023/03/11 10:44:25;;;;;;;0.50;0.40;;;17.80;51.90;;;;;;5060309;28;20457;-78
2023/03/11 10:46:52;;;;;;;0.50;0.40;;;17.90;51.10;;;;;;5051844;28;20438;-78
2023/03/11 10:49:19;;;;;;;0.50;0.30;;;18.30;50.30;;;;;;5038878;28;20460;-79
2023/03/11 10:51:47;;;;;;;0.50;0.30;;;18.30;51.30;;;;;;5040985;28;20546;-79
2023/03/11 10:54:25;;;;;;;0.50;0.40;;;19.00;48.30;;;;;;5042733;28;20473;-79
2023/03/11 10:56:56;;;;;;;0.50;0.40;;;19.40;50.00;;;;;;5058618;28;20447;-80
2023/03/11 10:59:26;;;;;;;0.50;0.40;;;18.90;48.10;;;;;;5044503;28;20905;-78
2023/03/11 11:01:58;;;;;;;0.50;0.33;;;19.30;50.30;;;;;;5044021;28;20461;-79
2023/03/11 11:04:33;;;;;;;0.60;0.40;;;19.10;46.90;;;;;;5045470;28;20472;-80
2023/03/11 11:07:21;;;;;;;0.50;0.30;;;18.00;50.30;;;;;;5056700;28;20464;-79
2023/03/11 11:10:14;;;;;;;0.50;0.30;;;17.30;50.50;;;;;;5038467;28;20469;-78
2023/03/11 11:12:52;;;;;;;0.50;0.43;;;15.90;50.60;;;;;;5039616;28;20462;-79
2023/03/11 11:15:25;;;;;;;0.50;0.40;;;15.00;52.60;;;;;;5036655;28;20509;-79
2023/03/11 11:17:54;;;;;;;0.50;0.40;;;13.90;54.10;;;;;;5037677;28;20440;-78
2023/03/11 11:20:23;;;;;;;0.50;0.40;;;13.00;54.60;;;;;;5036862;28;20454;-80
2023/03/11 11:22:52;;;;;;;0.50;0.40;;;12.40;55.30;;;;;;5038453;28;20761;-79
2023/03/11 11:25:32;;;;;;;0.50;0.40;;;11.80;56.50;;;;;;5048171;28;20472;-78
2023/03/11 11:28:02;;;;;;;0.60;0.50;;;11.30;57.50;;;;;;5057157;28;21014;-79
2023/03/11 11:30:29;;;;;;;11.53;2.10;;;11.30;60.40;;;;;;5043920;28;20472;-79
2023/03/11 11:32:56;;;;;;;0.50;0.40;;;11.00;57.90;;;;;;5036750;28;20529;-80
2023/03/11 11:35:24;;;;;;;0.50;0.40;;;11.60;58.30;;;;;;5043511;28;20472;-80
2023/03/11 11:37:54;;;;;;;0.50;0.40;;;12.40;59.20;;;;;;5042018;28;20964;-78
2023/03/11 11:40:27;;;;;;;0.50;0.40;;;13.60;59.50;;;;;;5039852;28;20458;-80
2023/03/11 11:42:59;;;;;;;0.50;0.40;;;14.70;56.20;;;;;;5048882;28;20444;-80
2023/03/11 11:45:35;;;;;;;0.50;0.40;;;15.30;53.20;;;;;;5045401;28;20493;-78
2023/03/11 11:48:07;;;;;;;0.50;0.47;;;15.80;54.40;;;;;;5051741;28;20444;-78
2023/03/11 11:50:36;;;;;;;0.50;0.40;;;16.10;50.90;;;;;;5041221;28;20544;-77
2023/03/11 11:53:21;;;;;;;0.50;0.40;;;15.70;48.00;;;;;;5039590;28;20521;-79
2023/03/11 11:55:51;;;;;;;0.50;0.40;;;15.10;48.90;;;;;;5047137;28;20486;-79
2023/03/11 11:58:19;;;;;;;0.50;0.40;;;14.80;52.30;;;;;;5039654;28;20532;-78
2023/03/11 12:01:04;;;;;;;0.50;0.40;;;14.40;51.90;;;;;;5039163;28;20501;-79
2023/03/11 12:03:49;;;;;;;0.70;0.60;;;14.50;51.70;;;;;;5047196;28;20438;-78
2023/03/11 12:06:24;;;;;;;0.50;0.40;;;14.90;51.90;;;;;;5041325;28;20523;-78
2023/03/11 12:09:04;;;;;;;0.70;0.53;;;15.00;50.90;;;;;;5058573;28;20527;-78
2023/03/11 12:11:37;;;;;;;0.50;0.40;;;15.30;49.90;;;;;;5033392;28;20507;-77
2023/03/11 12:14:13;;;;;;;0.50;0.47;;;15.20;51.00;;;;;;5039173;28;20960;-79
2023/03/11 12:16:43;;;;;;;0.50;0.40;;;14.90;51.10;;;;;;5038475;28;20469;-79
2023/03/11 12:19:21;;;;;;;0.50;0.30;;;14.90;51.80;;;;;;5049181;28;20480;-78
2023/03/11 12:22:18;;;;;;;0.50;0.40;;;15.00;50.80;;;;;;5059781;28;20457;-79
2023/03/11 12:25:18;;;;;;;0.50;0.30;;;15.80;49.60;;;;;;5062156;22;20582;-79
2023/03/11 12:27:49;;;;;;;0.50;0.37;;;16.90;51.60;;;;;;5058543;28;20865;-78
2023/03/11 12:30:21;;;;;;;0.50;0.40;;;16.80;50.60;;;;;;5080963;28;20619;-79
2023/03/11 12:32:54;;;;;;;0.50;0.30;;;16.60;50.00;;;;;;5083584;28;20932;-80
2023/03/11 12:35:26;;;;;;;0.60;0.60;;;16.90;51.60;;;;;;5077152;28;20883;-79
2023/03/11 12:38:01;;;;;;;1.17;0.70;;;16.40;50.30;;;;;;5078099;28;20955;-79
2023/03/11 12:41:02;;;;;;;0.50;0.40;;;15.70;48.60;;;;;;5058173;28;20780;-79
2023/03/11 12:44:10;;;;;;;0.50;0.40;;;14.30;49.30;;;;;;5058570;28;20519;-79
2023/03/11 12:47:19;;;;;;;0.50;0.40;;;14.30;52.40;;;;;;5070207;28;20468;-79
2023/03/11 12:49:48;;;;;;;0.50;0.40;;;13.80;52.50;;;;;;5063719;28;20446;-79
2023/03/11 12:52:33;;;;;;;0.50;0.40;;;12.90;52.20;;;;;;5063036;28;20503;-80
2023/03/11 12:55:37;;;;;;;0.50;0.40;;;11.90;52.40;;;;;;5078061;28;20487;-78
2023/03/11 12:58:35;;;;;;;0.50;0.40;;;11.50;54.00;;;;;;5061928;28;20433;-79
2023/03/11 13:01:25;;;;;;;0.50;0.50;;;12.60;54.00;;;;;;5063949;28;20537;-78
2023/03/11 13:04:03;;;;;;;0.50;0.30;;;13.30;52.40;;;;;;5061126;28;20438;-79
2023/03/11 13:06:47;;;;;;;0.50;0.40;;;14.30;53.00;;;;;;5067213;28;20456;-79